Time;durP1;ratioP1;P1;durP2;ratioP2;P2;SDS_P1;SDS_P2;PMS_P1;PMS_P2;Temp;Humidity;BMP_temperature;BMP_pressure;BME280_temperature;BME280_humidity;BME280_pressure;Samples;Min_cycle;Max_cycle;Signal;HPM_P1;HPM_P2
2021/04/22 00:01:13;;;;;;;6.70;5.83;;;12.50;89.70;20.10;99304.00;;;;5049440;28;20202;-69
2021/04/22 00:03:39;;;;;;;7.97;6.03;;;12.50;89.70;20.00;99295.00;;;;5033875;28;20197;-69
2021/04/22 00:06:05;;;;;;;6.83;5.80;;;12.50;89.70;19.90;99299.00;;;;5033506;28;20178;-70
2021/04/22 00:08:30;;;;;;;6.37;5.37;;;12.50;89.80;20.00;99294.00;;;;5000626;28;20557;-70
2021/04/22 00:10:56;;;;;;;6.57;5.30;;;12.50;89.80;19.90;99308.00;;;;5051502;28;20843;-70
2021/04/22 00:13:25;;;;;;;6.60;5.37;;;12.50;89.70;19.80;99307.00;;;;5051635;28;20189;-69
2021/04/22 00:15:51;;;;;;;6.77;5.50;;;12.50;89.60;20.00;99313.00;;;;5032911;28;20252;-70
2021/04/22 00:18:16;;;;;;;6.47;5.53;;;12.50;89.70;20.00;99304.00;;;;5051129;28;20447;-69
2021/04/22 00:20:42;;;;;;;5.87;5.27;;;12.50;89.70;20.10;99316.00;;;;5049917;28;20440;-70
2021/04/22 00:23:09;;;;;;;6.00;5.20;;;12.50;89.70;19.90;99312.00;;;;5049939;28;20560;-70
2021/04/22 00:25:35;;;;;;;6.83;5.53;;;12.50;89.80;20.00;99306.00;;;;5051393;28;20186;-70
2021/04/22 00:28:02;;;;;;;7.33;5.77;;;12.50;89.70;20.00;99298.00;;;;5033184;28;20434;-70
2021/04/22 00:30:27;;;;;;;6.10;4.77;;;12.50;89.80;19.90;99320.00;;;;5033434;28;20497;-70
2021/04/22 00:32:53;;;;;;;6.30;5.17;;;12.50;90.00;19.80;99314.00;;;;5032875;28;20950;-69
2021/04/22 00:35:19;;;;;;;5.80;5.13;;;12.50;90.00;19.70;99307.00;;;;5033740;28;20218;-70
2021/04/22 00:37:45;;;;;;;6.40;5.37;;;12.40;89.80;19.70;99314.00;;;;5016138;28;20660;-69
2021/04/22 00:40:30;;;;;;;6.27;5.20;;;12.50;90.00;19.90;99312.00;;;;5033149;28;20436;-70
2021/04/22 00:43:03;;;;;;;8.27;5.70;;;12.50;90.00;20.00;99310.00;;;;5035176;28;20443;-70
2021/04/22 00:45:29;;;;;;;5.77;5.03;;;12.50;90.00;19.80;99312.00;;;;5049666;28;20432;-71
2021/04/22 00:47:54;;;;;;;6.10;5.37;;;12.40;89.70;19.70;99315.00;;;;5032807;28;20435;-71
2021/04/22 00:50:23;;;;;;;6.40;5.13;;;12.40;89.90;19.70;99318.00;;;;5032849;28;20170;-71
2021/04/22 00:52:53;;;;;;;6.90;5.80;;;12.40;89.80;19.80;99313.00;;;;5032232;28;20541;-71
2021/04/22 00:55:18;;;;;;;6.40;5.40;;;12.40;89.80;19.70;99313.00;;;;5017070;28;20479;-72
2021/04/22 00:57:44;;;;;;;5.60;4.73;;;12.40;89.80;19.80;99322.00;;;;5032515;28;20423;-70
2021/04/22 01:00:11;;;;;;;7.07;5.53;;;12.40;89.80;19.70;99324.00;;;;5049331;28;20693;-69
2021/04/22 01:02:37;;;;;;;6.73;5.53;;;12.50;90.00;19.90;99321.00;;;;5032608;28;20206;-69
2021/04/22 01:05:18;;;;;;;6.40;5.50;;;12.50;90.00;19.80;99314.00;;;;5016397;28;20491;-69
2021/04/22 01:07:45;;;;;;;6.47;5.70;;;12.40;89.80;19.70;99316.00;;;;5048909;28;20531;-69
2021/04/22 01:10:12;;;;;;;6.67;5.20;;;12.40;89.90;19.80;99316.00;;;;5032712;28;20436;-69
2021/04/22 01:12:38;;;;;;;5.80;4.77;;;12.40;89.90;19.80;99317.00;;;;5015549;28;20461;-69
2021/04/22 01:15:09;;;;;;;6.33;5.20;;;12.40;89.90;19.70;99323.00;;;;5015977;28;20447;-70
2021/04/22 01:17:38;;;;;;;5.60;4.97;;;12.40;90.00;19.70;99321.00;;;;5015902;28;20202;-69
2021/04/22 01:20:19;;;;;;;6.47;4.70;;;12.40;89.90;19.90;99324.00;;;;5048214;28;20486;-70
2021/04/22 01:22:47;;;;;;;6.37;5.40;;;12.40;90.00;19.60;99330.00;;;;5032771;28;20977;-70
2021/04/22 01:25:16;;;;;;;5.83;4.93;;;12.40;90.00;19.70;99328.00;;;;5032501;28;20811;-70
2021/04/22 01:27:42;;;;;;;6.30;5.40;;;12.40;89.90;19.70;99326.00;;;;5049872;28;20547;-70
2021/04/22 01:30:12;;;;;;;7.03;5.27;;;12.40;89.90;19.70;99326.00;;;;5032581;28;20415;-70
2021/04/22 01:32:38;;;;;;;6.47;5.40;;;12.40;89.90;19.50;99323.00;;;;4997872;28;20566;-70
2021/04/22 01:35:08;;;;;;;5.77;4.93;;;12.40;90.00;19.60;99346.00;;;;5032079;28;20898;-71
2021/04/22 01:37:35;;;;;;;6.17;5.10;;;12.40;90.00;19.60;99332.00;;;;5049848;28;20216;-68
2021/04/22 01:40:04;;;;;;;6.93;5.13;;;12.40;90.00;19.70;99328.00;;;;5032060;28;20929;-70
2021/04/22 01:42:30;;;;;;;6.90;5.57;;;12.40;90.00;19.70;99324.00;;;;5048166;28;20492;-70
2021/04/22 01:44:56;;;;;;;6.27;5.20;;;12.40;89.90;19.60;99334.00;;;;5048645;28;20407;-69
2021/04/22 01:47:21;;;;;;;6.10;4.97;;;12.40;90.00;19.60;99322.00;;;;5031228;28;20229;-69
2021/04/22 01:49:47;;;;;;;6.23;4.93;;;12.30;89.90;19.70;99321.00;;;;5032124;28;20182;-70
2021/04/22 01:52:13;;;;;;;6.63;5.20;;;12.30;89.90;19.50;99320.00;;;;5015801;28;20240;-70
2021/04/22 01:54:38;;;;;;;6.40;5.13;;;12.30;89.80;19.50;99315.00;;;;5048005;28;20181;-70
2021/04/22 01:57:05;;;;;;;6.97;5.93;;;12.40;90.00;19.60;99309.00;;;;5048212;28;20251;-70
2021/04/22 01:59:31;;;;;;;6.73;5.30;;;12.40;90.00;19.60;99319.00;;;;5032380;28;20185;-70
2021/04/22 02:01:57;;;;;;;5.20;4.47;;;12.40;90.00;19.70;99320.00;;;;5048853;28;20435;-70
2021/04/22 02:04:22;;;;;;;7.03;5.43;;;12.30;89.90;19.60;99325.00;;;;5048465;28;20186;-72
2021/04/22 02:06:48;;;;;;;6.30;5.37;;;12.30;89.80;19.50;99319.00;;;;5048714;28;20598;-70
2021/04/22 02:09:14;;;;;;;5.70;4.60;;;12.30;89.70;19.60;99317.00;;;;5048194;28;20185;-70
2021/04/22 02:11:40;;;;;;;6.00;5.10;;;12.30;89.70;19.50;99315.00;;;;5030929;28;20198;-70
2021/04/22 02:14:05;;;;;;;6.30;5.63;;;12.30;89.80;19.70;99324.00;;;;5030513;28;20269;-70
2021/04/22 02:16:31;;;;;;;6.00;5.00;;;12.30;89.80;19.70;99318.00;;;;5049040;28;20244;-69
2021/04/22 02:19:29;;;;;;;5.80;4.83;;;12.30;89.70;19.50;99304.00;;;;5048313;28;20186;-69
2021/04/22 02:21:54;;;;;;;6.70;5.30;;;12.30;89.80;19.50;99313.00;;;;5048285;28;20251;-70
2021/04/22 02:24:20;;;;;;;7.07;5.93;;;12.30;89.80;19.40;99317.00;;;;5031089;28;20412;-69
2021/04/22 02:26:46;;;;;;;6.83;5.57;;;12.30;89.80;19.50;99308.00;;;;5048266;28;20687;-69
2021/04/22 02:29:11;;;;;;;6.70;4.80;;;12.30;89.80;19.50;99308.00;;;;5047630;28;20264;-69
2021/04/22 02:31:37;;;;;;;6.00;4.90;;;12.30;89.90;19.50;99317.00;;;;5048878;28;20286;-70
2021/04/22 02:34:04;;;;;;;6.17;4.53;;;12.30;89.80;19.70;99323.00;;;;5049591;28;20576;-69
2021/04/22 02:36:30;;;;;;;6.40;4.80;;;12.30;89.80;19.70;99319.00;;;;5047656;28;20264;-69
2021/04/22 02:38:55;;;;;;;6.10;4.90;;;12.30;89.80;19.60;99313.00;;;;5047841;28;20428;-71
2021/04/22 02:41:21;;;;;;;5.90;4.80;;;12.30;89.80;19.80;99314.00;;;;5049191;28;20190;-69
2021/04/22 02:43:47;;;;;;;5.73;4.87;;;12.30;89.90;19.70;99323.00;;;;5030767;28;20181;-70
2021/04/22 02:46:12;;;;;;;5.93;4.90;;;12.30;89.80;19.70;99311.00;;;;5051933;28;20665;-70
2021/04/22 02:48:38;;;;;;;6.10;4.83;;;12.30;90.00;19.80;99312.00;;;;5053069;28;20189;-69
2021/04/22 02:51:04;;;;;;;5.93;4.93;;;12.30;89.80;19.90;99306.00;;;;5034738;28;20670;-69
2021/04/22 02:53:30;;;;;;;6.03;5.00;;;12.30;89.80;19.70;99310.00;;;;5051282;28;20574;-70
2021/04/22 02:55:56;;;;;;;6.60;5.17;;;12.30;89.90;19.70;99305.00;;;;5053106;28;20443;-70
2021/04/22 02:58:24;;;;;;;6.60;5.40;;;12.30;90.00;19.60;99296.00;;;;5017871;28;20831;-70
2021/04/22 03:00:49;;;;;;;5.80;4.83;;;12.20;89.70;19.60;99293.00;;;;5035463;28;20179;-70
2021/04/22 03:03:15;;;;;;;5.50;4.50;;;12.30;89.80;19.60;99298.00;;;;5051183;28;20858;-70
2021/04/22 03:05:41;;;;;;;6.10;4.80;;;12.30;90.00;19.60;99300.00;;;;5034534;28;20628;-70
2021/04/22 03:08:07;;;;;;;8.27;5.20;;;12.20;89.80;19.50;99286.00;;;;5034715;28;20442;-70
2021/04/22 03:10:33;;;;;;;5.30;4.50;;;12.20;89.80;19.30;99294.00;;;;5034766;28;20433;-71
2021/04/22 03:12:59;;;;;;;6.30;5.33;;;12.20;89.80;19.40;99294.00;;;;5034386;28;20201;-70
2021/04/22 03:15:25;;;;;;;5.70;4.67;;;12.20;89.80;19.60;99304.00;;;;5051097;28;20897;-70
2021/04/22 03:17:51;;;;;;;6.17;4.70;;;12.20;89.80;19.30;99292.00;;;;5051390;28;20778;-69
2021/04/22 03:20:17;;;;;;;6.70;5.33;;;12.20;89.80;19.40;99300.00;;;;5050855;28;20189;-69
2021/04/22 03:22:44;;;;;;;6.60;5.50;;;12.20;89.80;19.40;99315.00;;;;5051559;28;20434;-70
2021/04/22 03:25:11;;;;;;;6.03;4.90;;;12.20;89.80;19.40;99305.00;;;;5051137;28;20404;-70
2021/04/22 03:27:37;;;;;;;5.87;4.70;;;12.20;89.80;19.50;99310.00;;;;5034851;28;20471;-69
2021/04/22 03:30:06;;;;;;;6.90;5.53;;;12.20;89.80;19.50;99305.00;;;;5052226;28;20542;-70
2021/04/22 03:32:31;;;;;;;6.60;5.67;;;12.20;89.80;19.30;99318.00;;;;5050873;28;20238;-69
2021/04/22 03:34:57;;;;;;;6.17;4.77;;;12.20;90.00;19.60;99313.00;;;;5050352;28;21071;-69
2021/04/22 03:37:23;;;;;;;6.57;5.10;;;12.20;89.80;19.70;99323.00;;;;5033652;28;20209;-69
2021/04/22 03:39:49;;;;;;;5.37;4.40;;;12.20;89.80;19.50;99326.00;;;;5049804;28;20182;-69
2021/04/22 03:42:18;;;;;;;6.03;5.20;;;12.20;89.80;19.70;99319.00;;;;5050477;28;20197;-71
2021/04/22 03:44:47;;;;;;;6.37;5.50;;;12.10;89.80;19.60;99328.00;;;;5034257;28;20256;-70
2021/04/22 03:47:13;;;;;;;6.20;5.37;;;12.20;90.00;19.60;99322.00;;;;5034088;28;20456;-71
2021/04/22 03:49:39;;;;;;;6.20;4.60;;;12.20;90.00;19.50;99320.00;;;;5033768;28;20468;-70
2021/04/22 03:52:05;;;;;;;5.90;4.90;;;12.10;89.80;19.50;99319.00;;;;5050930;28;20484;-70
2021/04/22 03:54:31;;;;;;;6.00;4.80;;;12.20;90.00;19.50;99306.00;;;;5049601;28;20403;-71
2021/04/22 03:56:58;;;;;;;5.43;4.17;;;12.20;90.00;19.40;99317.00;;;;5049738;28;20487;-71
2021/04/22 03:59:24;;;;;;;6.00;5.07;;;12.20;90.00;19.50;99323.00;;;;5050699;28;20192;-71
2021/04/22 04:01:50;;;;;;;6.33;5.30;;;12.20;90.00;19.70;99335.00;;;;5050203;28;20435;-71
2021/04/22 04:04:15;;;;;;;6.13;4.63;;;12.10;89.80;19.80;99354.00;;;;5051830;28;20192;-70
2021/04/22 04:06:41;;;;;;;6.40;5.47;;;12.20;90.00;19.90;99352.00;;;;5051700;28;20431;-71
2021/04/22 04:09:07;;;;;;;6.23;5.13;;;12.20;90.00;19.90;99341.00;;;;5033440;28;20224;-70
2021/04/22 04:11:33;;;;;;;5.77;5.03;;;12.10;89.70;19.90;99342.00;;;;5034079;28;20198;-70
2021/04/22 04:13:58;;;;;;;5.70;4.60;;;12.10;89.90;19.80;99344.00;;;;5017441;28;20193;-70
2021/04/22 04:16:24;;;;;;;5.60;4.60;;;12.10;89.70;19.80;99361.00;;;;5051006;28;20572;-70
2021/04/22 04:18:51;;;;;;;6.00;4.80;;;12.10;89.90;19.80;99357.00;;;;5050258;28;20178;-70
2021/04/22 04:21:17;;;;;;;6.60;5.10;;;12.10;89.90;19.80;99354.00;;;;5032997;28;20460;-70
2021/04/22 04:23:42;;;;;;;5.70;4.90;;;12.10;89.80;19.40;99357.00;;;;5049868;28;20623;-71
2021/04/22 04:26:08;;;;;;;6.40;5.17;;;12.10;89.90;19.30;99358.00;;;;5050149;28;20432;-70
2021/04/22 04:28:34;;;;;;;6.80;4.90;;;12.10;89.90;19.40;99361.00;;;;5049941;28;20704;-71
2021/04/22 04:31:00;;;;;;;6.07;5.20;;;12.10;89.90;19.60;99363.00;;;;5051139;28;20667;-70
2021/04/22 04:33:26;;;;;;;6.17;4.70;;;12.10;89.90;19.50;99359.00;;;;5016958;28;20300;-70
2021/04/22 04:35:51;;;;;;;5.87;5.10;;;12.10;89.90;19.50;99333.00;;;;5049537;28;20555;-69
2021/04/22 04:38:17;;;;;;;7.03;4.80;;;12.10;89.90;19.30;99358.00;;;;5033295;28;20910;-69
2021/04/22 04:40:43;;;;;;;6.30;5.20;;;12.10;89.90;19.40;99355.00;;;;5033191;28;20201;-69
2021/04/22 04:43:09;;;;;;;5.67;4.70;;;12.10;89.90;19.30;99362.00;;;;5033167;28;20213;-69
2021/04/22 04:45:35;;;;;;;5.90;4.70;;;12.10;89.90;19.40;99376.00;;;;5032852;28;20285;-71
2021/04/22 04:48:00;;;;;;;5.27;4.47;;;12.10;90.00;19.50;99373.00;;;;5049549;28;20650;-70
2021/04/22 04:50:26;;;;;;;5.87;4.60;;;12.10;89.90;19.50;99347.00;;;;5049099;28;20206;-69
2021/04/22 04:52:52;;;;;;;5.57;4.33;;;12.10;89.90;19.70;99380.00;;;;5049386;28;20202;-70
2021/04/22 04:55:17;;;;;;;5.87;4.63;;;12.10;89.90;19.60;99383.00;;;;5049381;28;20208;-69
2021/04/22 04:57:43;;;;;;;7.23;4.97;;;12.10;89.90;19.40;99389.00;;;;5048981;28;20248;-69
2021/04/22 05:00:10;;;;;;;6.03;4.70;;;12.10;90.00;19.30;99396.00;;;;4999663;28;20178;-69
2021/04/22 05:02:36;;;;;;;5.00;4.50;;;12.10;89.90;19.20;99398.00;;;;5032923;28;20435;-70
2021/04/22 05:05:04;;;;;;;5.97;4.70;;;12.10;90.00;19.40;99390.00;;;;5031869;28;20419;-69
2021/04/22 05:07:30;;;;;;;5.40;4.40;;;12.10;90.00;19.30;99379.00;;;;5050348;28;20667;-69
2021/04/22 05:09:55;;;;;;;5.27;4.23;;;12.10;89.90;19.40;99376.00;;;;5032996;28;20731;-69
2021/04/22 05:12:22;;;;;;;5.60;4.37;;;12.10;90.00;19.60;99388.00;;;;5031977;28;20194;-70
2021/04/22 05:14:48;;;;;;;5.10;4.07;;;12.10;89.90;19.50;99388.00;;;;5032544;28;20204;-71
2021/04/22 05:17:13;;;;;;;5.60;4.70;;;12.10;89.80;19.50;99406.00;;;;5049013;28;20977;-68
2021/04/22 05:19:39;;;;;;;6.03;4.30;;;12.10;89.80;19.40;99406.00;;;;5049481;28;20224;-70
2021/04/22 05:22:05;;;;;;;5.20;4.00;;;12.10;89.80;19.40;99407.00;;;;5048713;28;20221;-69
2021/04/22 05:24:31;;;;;;;6.20;4.43;;;12.10;89.80;19.30;99409.00;;;;5049906;28;20911;-70
2021/04/22 05:26:57;;;;;;;5.60;4.90;;;12.10;89.80;19.30;99413.00;;;;5048379;28;20222;-69
2021/04/22 05:29:23;;;;;;;5.60;4.50;;;12.10;89.80;19.40;99405.00;;;;5050581;28;20178;-70
2021/04/22 05:31:48;;;;;;;5.60;4.40;;;12.10;89.70;19.40;99402.00;;;;5032015;28;20214;-69
2021/04/22 05:34:14;;;;;;;5.60;4.73;;;12.10;89.70;19.30;99401.00;;;;5048675;28;20468;-69
2021/04/22 05:36:43;;;;;;;5.87;4.70;;;12.10;89.70;19.30;99409.00;;;;5048973;28;20237;-69
2021/04/22 05:39:09;;;;;;;5.90;4.70;;;12.10;89.80;19.40;99400.00;;;;5048295;28;20441;-69
2021/04/22 05:41:35;;;;;;;5.83;4.73;;;12.10;89.80;19.30;99403.00;;;;5032041;28;20210;-69
2021/04/22 05:44:02;;;;;;;5.40;4.10;;;12.10;89.80;19.50;99410.00;;;;5015889;28;20261;-69
2021/04/22 05:46:27;;;;;;;6.20;4.97;;;12.10;89.80;19.60;99409.00;;;;5049202;28;20438;-69
2021/04/22 05:48:53;;;;;;;5.37;4.43;;;12.10;89.70;19.30;99415.00;;;;5015601;28;20411;-69
2021/04/22 05:51:19;;;;;;;6.00;5.23;;;12.10;89.80;19.40;99418.00;;;;5047998;28;20722;-69
2021/04/22 05:53:45;;;;;;;5.80;4.80;;;12.10;89.80;19.70;99434.00;;;;5031766;28;20193;-70
2021/04/22 05:56:10;;;;;;;5.70;4.40;;;12.10;89.70;19.50;99419.00;;;;5031993;28;20446;-69
2021/04/22 05:58:36;;;;;;;6.50;4.83;;;12.10;89.70;19.60;99395.00;;;;5048478;28;20182;-69
2021/04/22 06:01:02;;;;;;;5.57;4.60;;;12.10;89.70;19.60;99414.00;;;;5048102;28;20186;-69
2021/04/22 06:03:28;;;;;;;5.97;4.70;;;12.10;89.60;19.60;99419.00;;;;5049534;28;20178;-69
2021/04/22 06:05:54;;;;;;;6.33;4.83;;;12.10;89.60;19.70;99415.00;;;;5048465;28;20440;-69
2021/04/22 06:08:20;;;;;;;5.47;4.60;;;12.10;89.70;19.70;99420.00;;;;5047925;28;20182;-70
2021/04/22 06:10:49;;;;;;;6.60;4.83;;;12.10;89.60;19.50;99411.00;;;;5049574;28;20517;-69
2021/04/22 06:13:14;;;;;;;6.10;5.10;;;12.10;89.60;19.60;99417.00;;;;5048466;28;20213;-70
2021/04/22 06:15:40;;;;;;;5.60;4.20;;;12.10;89.60;19.40;99418.00;;;;5047824;28;20450;-69
2021/04/22 06:18:06;;;;;;;5.63;4.47;;;12.10;89.60;19.80;99419.00;;;;5031519;28;20438;-70
2021/04/22 06:20:32;;;;;;;7.40;5.17;;;12.10;89.60;19.50;99425.00;;;;5069039;28;20959;-69
2021/04/22 06:22:58;;;;;;;5.97;4.50;;;12.10;89.60;19.40;99423.00;;;;5021574;28;20497;-70
2021/04/22 06:25:24;;;;;;;6.73;5.07;;;12.10;89.50;19.30;99437.00;;;;5071275;28;20182;-69
2021/04/22 06:27:53;;;;;;;5.23;4.37;;;12.10;89.50;19.50;99441.00;;;;5071375;28;20648;-70
2021/04/22 06:30:19;;;;;;;5.70;3.93;;;12.10;89.50;19.40;99431.00;;;;5070897;28;20192;-71
2021/04/22 06:32:45;;;;;;;5.40;4.43;;;12.10;89.60;19.40;99435.00;;;;5071003;28;20493;-71
2021/04/22 06:35:12;;;;;;;5.63;4.23;;;12.10;89.50;19.50;99438.00;;;;5053991;28;20538;-70
2021/04/22 06:37:38;;;;;;;5.13;3.93;;;12.10;89.60;19.40;99445.00;;;;5070339;28;20495;-70
2021/04/22 06:40:12;;;;;;;5.63;4.33;;;12.10;89.60;19.60;99443.00;;;;5073183;28;20441;-71
2021/04/22 06:42:39;;;;;;;7.30;4.80;;;12.10;89.60;19.60;99447.00;;;;5021280;28;20474;-70
2021/04/22 06:45:07;;;;;;;5.97;4.87;;;12.10;89.60;19.60;99445.00;;;;5038354;28;20413;-69
2021/04/22 06:47:32;;;;;;;5.30;4.30;;;12.10;89.70;19.50;99442.00;;;;5070755;28;20467;-70
2021/04/22 06:49:58;;;;;;;5.30;4.10;;;12.10;89.60;19.60;99413.00;;;;5071324;28;20431;-70
2021/04/22 06:52:24;;;;;;;5.07;4.33;;;12.10;89.60;19.40;99434.00;;;;5071731;28;20662;-70
2021/04/22 06:54:50;;;;;;;5.40;4.23;;;12.10;89.60;19.50;99428.00;;;;5071815;28;20196;-70
2021/04/22 06:57:15;;;;;;;5.87;4.47;;;12.10;89.60;19.40;99427.00;;;;5070287;28;20434;-70
2021/04/22 06:59:42;;;;;;;6.33;4.77;;;12.10;89.60;19.30;99443.00;;;;5055381;28;20650;-70
2021/04/22 07:02:09;;;;;;;5.10;4.10;;;12.10;89.60;19.40;99431.00;;;;5055194;28;20232;-70
2021/04/22 07:04:36;;;;;;;6.43;4.70;;;12.10;89.60;19.40;99423.00;;;;5037534;28;20695;-70
2021/04/22 07:07:02;;;;;;;5.93;4.50;;;12.10;89.60;19.60;99432.00;;;;5071638;28;20463;-70
2021/04/22 07:09:32;;;;;;;5.63;4.07;;;12.10;89.60;19.50;99417.00;;;;5054939;28;20444;-70
2021/04/22 07:11:58;;;;;;;5.70;4.90;;;12.10;89.60;19.40;99427.00;;;;5072211;28;20516;-70
2021/04/22 07:14:24;;;;;;;5.13;4.00;;;12.10;89.60;19.50;99427.00;;;;5055020;28;20566;-71
2021/04/22 07:16:49;;;;;;;5.37;4.20;;;12.10;89.60;19.50;99425.00;;;;5071716;28;20471;-70
2021/04/22 07:19:15;;;;;;;6.73;5.30;;;12.10;89.60;19.40;99432.00;;;;5072460;28;20208;-69
2021/04/22 07:21:41;;;;;;;5.30;4.23;;;12.10;89.60;19.50;99426.00;;;;5070475;28;20205;-70
2021/04/22 07:24:07;;;;;;;6.10;4.80;;;12.10;89.60;19.60;99438.00;;;;5054429;28;20177;-70
2021/04/22 07:26:33;;;;;;;6.00;4.70;;;12.10;89.60;19.50;99442.00;;;;5070644;28;20217;-70
2021/04/22 07:28:59;;;;;;;5.83;4.40;;;12.10;89.60;19.50;99447.00;;;;5071543;28;20432;-70
2021/04/22 07:31:24;;;;;;;5.43;4.23;;;12.10;89.60;19.50;99457.00;;;;5035763;28;20619;-70
2021/04/22 07:33:50;;;;;;;5.77;4.80;;;12.10;89.60;19.80;99465.00;;;;5070598;28;20559;-70
2021/04/22 07:36:17;;;;;;;8.50;4.80;;;12.10;89.50;19.80;99462.00;;;;5054175;28;20213;-70
2021/04/22 07:38:43;;;;;;;5.40;4.20;;;12.10;89.50;19.60;99467.00;;;;5070272;28;20464;-70
2021/04/22 07:41:09;;;;;;;6.17;4.40;;;12.10;89.50;19.90;99486.00;;;;5049960;28;20851;-70
2021/04/22 07:43:35;;;;;;;6.33;4.23;;;12.10;89.50;19.70;99487.00;;;;5070379;28;20185;-70
2021/04/22 07:46:01;;;;;;;5.53;4.50;;;12.10;89.50;19.70;99497.00;;;;5057096;28;20182;-70
2021/04/22 07:48:27;;;;;;;5.37;4.10;;;12.10;89.50;19.60;99504.00;;;;5052845;28;20924;-70
2021/04/22 07:50:53;;;;;;;5.53;4.40;;;12.10;89.50;19.90;99507.00;;;;5070437;28;20402;-70
2021/04/22 07:53:19;;;;;;;5.60;4.40;;;12.10;89.50;19.80;99498.00;;;;5069414;28;20586;-70
2021/04/22 07:55:45;;;;;;;5.63;4.30;;;12.10;89.50;19.50;99506.00;;;;5069414;28;20288;-70
2021/04/22 07:58:15;;;;;;;4.80;3.80;;;12.10;89.50;19.80;99510.00;;;;5048083;28;20456;-70
2021/04/22 08:00:42;;;;;;;7.00;4.50;;;12.10;89.50;19.70;99508.00;;;;5032651;28;20411;-70
2021/04/22 08:03:08;;;;;;;5.97;4.80;;;12.20;89.60;19.90;99509.00;;;;5049524;28;20935;-70
2021/04/22 08:05:36;;;;;;;5.63;4.43;;;12.10;89.50;19.90;99513.00;;;;5032780;28;20448;-70
2021/04/22 08:08:05;;;;;;;5.70;4.70;;;12.20;89.70;19.80;99532.00;;;;5016961;28;20456;-70
2021/04/22 08:10:32;;;;;;;5.70;4.43;;;12.20;89.70;19.80;99532.00;;;;5032837;28;20494;-70
2021/04/22 08:13:00;;;;;;;5.70;4.60;;;12.10;89.50;20.00;99546.00;;;;5032837;28;20939;-70
2021/04/22 08:15:26;;;;;;;5.93;4.60;;;12.10;89.50;19.80;99531.00;;;;5048280;28;20467;-70
2021/04/22 08:17:52;;;;;;;5.77;4.73;;;12.20;89.70;19.80;99539.00;;;;5048525;28;20456;-70
2021/04/22 08:20:25;;;;;;;5.23;3.93;;;12.10;89.50;19.90;99552.00;;;;5047772;28;20186;-71
2021/04/22 08:22:52;;;;;;;6.40;5.10;;;12.20;89.60;20.00;99546.00;;;;5049505;28;20202;-70
2021/04/22 08:25:26;;;;;;;6.40;5.23;;;12.10;89.50;19.60;99551.00;;;;5032210;28;20453;-71
2021/04/22 08:27:53;;;;;;;6.10;4.63;;;12.20;89.60;19.90;99555.00;;;;5049222;28;20456;-70
2021/04/22 08:30:47;;;;;;;6.53;5.10;;;12.20;90.20;19.80;99562.00;;;;5049675;28;20808;-70
2021/04/22 08:33:14;;;;;;;6.07;5.40;;;12.20;89.60;19.70;99553.00;;;;5050752;28;20494;-70
2021/04/22 08:35:40;;;;;;;5.93;4.77;;;12.20;89.60;19.70;99569.00;;;;5068401;28;20463;-70
2021/04/22 08:38:06;;;;;;;6.87;5.30;;;12.20;89.60;19.80;99565.00;;;;5069128;28;20466;-70
2021/04/22 08:40:31;;;;;;;7.40;5.10;;;12.20;89.60;19.90;99562.00;;;;5069048;28;20777;-70
2021/04/22 08:42:57;;;;;;;5.33;4.47;;;12.20;89.60;19.70;99580.00;;;;5068207;28;20467;-70
2021/04/22 08:45:23;;;;;;;5.70;4.60;;;12.20;89.60;19.70;99572.00;;;;5069758;28;20177;-70
2021/04/22 08:47:49;;;;;;;6.67;5.37;;;12.20;89.60;19.80;99581.00;;;;5069540;28;20802;-71
2021/04/22 08:50:24;;;;;;;6.80;5.30;;;12.20;89.70;19.90;99583.00;;;;5068042;28;20442;-70
2021/04/22 08:52:54;;;;;;;6.70;5.50;;;12.20;89.70;19.90;99583.00;;;;5067938;28;20326;-71
2021/04/22 08:55:22;;;;;;;6.03;4.97;;;12.20;89.60;19.70;99586.00;;;;5068449;28;20470;-71
2021/04/22 08:57:48;;;;;;;6.10;4.70;;;12.20;89.70;19.50;99596.00;;;;5068093;28;20927;-70
2021/04/22 09:00:17;;;;;;;6.50;5.20;;;12.20;89.70;19.70;99602.00;;;;5068851;28;20428;-71
2021/04/22 09:02:42;;;;;;;6.67;4.87;;;12.20;89.70;19.70;99601.00;;;;5051986;28;20549;-70
2021/04/22 09:05:11;;;;;;;6.63;5.13;;;12.20;89.70;19.60;99606.00;;;;5068237;28;20559;-71
2021/04/22 09:07:36;;;;;;;6.07;5.17;;;12.20;89.70;19.80;99607.00;;;;5052172;28;20468;-70
2021/04/22 09:10:04;;;;;;;7.00;4.83;;;12.20;89.60;19.90;99611.00;;;;5067512;28;20925;-71
2021/04/22 09:12:29;;;;;;;8.13;6.00;;;12.20;90.20;19.80;99611.00;;;;5052235;28;20211;-70
2021/04/22 09:14:58;;;;;;;6.93;5.50;;;12.20;89.70;19.70;99617.00;;;;5070115;28;20402;-71
2021/04/22 09:17:24;;;;;;;6.87;5.40;;;12.20;89.70;19.80;99611.00;;;;5051125;28;20207;-70
2021/04/22 09:19:50;;;;;;;7.03;5.50;;;12.20;89.70;19.80;99625.00;;;;5068247;28;20436;-71
2021/04/22 09:22:16;;;;;;;7.67;6.03;;;12.20;89.70;19.90;99622.00;;;;5068373;28;20456;-71
2021/04/22 09:24:42;;;;;;;7.50;5.60;;;12.20;89.70;19.90;99627.00;;;;5067691;28;20817;-70
2021/04/22 09:27:15;;;;;;;6.57;5.53;;;12.20;89.70;19.80;99617.00;;;;5068129;28;20216;-71
2021/04/22 09:29:50;;;;;;;5.53;4.60;;;12.20;89.70;19.80;99642.00;;;;5068098;28;20193;-70
2021/04/22 09:32:27;;;;;;;7.53;5.60;;;12.20;89.70;19.80;99653.00;;;;5049914;28;20988;-71
2021/04/22 09:35:14;;;;;;;7.40;5.97;;;12.20;89.60;19.90;99663.00;;;;5051776;28;20512;-70
2021/04/22 09:37:45;;;;;;;6.37;5.07;;;12.30;89.60;19.80;99669.00;;;;5068023;28;20447;-71
2021/04/22 09:40:28;;;;;;;6.10;4.50;;;12.30;89.60;19.80;99679.00;;;;5066772;28;20428;-70
2021/04/22 09:42:55;;;;;;;5.70;4.47;;;12.30;89.60;19.70;99682.00;;;;5065907;28;20463;-71
2021/04/22 09:45:23;;;;;;;7.23;5.20;;;12.20;89.50;19.50;99671.00;;;;5030819;28;20415;-70
2021/04/22 09:47:49;;;;;;;7.70;6.10;;;12.20;89.50;19.70;99677.00;;;;5031884;28;20431;-70
2021/04/22 09:50:18;;;;;;;7.13;4.93;;;12.20;89.50;19.60;99681.00;;;;5047954;28;20520;-70
2021/04/22 09:52:47;;;;;;;6.53;5.27;;;12.20;89.60;19.90;99685.00;;;;5046885;28;20475;-71
2021/04/22 09:55:19;;;;;;;6.50;4.97;;;12.20;89.50;19.80;99683.00;;;;5014198;28;20464;-71
2021/04/22 09:57:45;;;;;;;7.90;5.20;;;12.30;89.60;19.70;99695.00;;;;5031485;28;20464;-70
2021/04/22 10:00:30;;;;;;;7.00;5.87;;;12.20;89.50;20.00;99694.00;;;;5061218;28;20447;-70
2021/04/22 10:02:58;;;;;;;6.50;5.37;;;12.30;89.70;19.90;99691.00;;;;5031838;28;20834;-71
2021/04/22 10:05:34;;;;;;;6.20;5.20;;;12.20;89.60;20.00;99659.00;;;;5056840;28;20447;-71
2021/04/22 10:08:14;;;;;;;7.43;5.30;;;12.20;89.60;19.80;99698.00;;;;5051158;28;20447;-71
2021/04/22 10:10:53;;;;;;;7.33;4.93;;;12.20;89.70;19.90;99685.00;;;;5049560;28;20470;-71
2021/04/22 10:13:19;;;;;;;6.40;5.13;;;12.20;89.80;19.80;99683.00;;;;5066582;28;20948;-72
2021/04/22 10:15:50;;;;;;;6.13;5.03;;;12.20;90.00;19.90;99700.00;;;;5066800;28;20702;-72
2021/04/22 10:18:16;;;;;;;7.50;5.37;;;12.20;90.00;19.90;99699.00;;;;5046985;28;20568;-71
2021/04/22 10:20:41;;;;;;;5.37;4.53;;;12.20;90.00;19.80;99679.00;;;;5012749;28;20919;-71
2021/04/22 10:23:08;;;;;;;5.80;4.87;;;12.20;90.10;19.80;99677.00;;;;5046806;28;20302;-70
2021/04/22 10:25:37;;;;;;;5.80;4.83;;;12.20;90.10;19.80;99677.00;;;;5029766;28;20181;-70
2021/04/22 10:28:14;;;;;;;6.70;4.83;;;12.20;90.10;19.70;99692.00;;;;5046963;28;20496;-70
2021/04/22 10:30:43;;;;;;;7.73;5.90;;;12.20;90.10;19.60;99692.00;;;;5047876;28;20834;-70
2021/04/22 10:33:09;;;;;;;6.27;5.20;;;12.20;90.10;19.60;99698.00;;;;5047533;28;21028;-70
2021/04/22 10:35:37;;;;;;;6.17;4.83;;;12.20;90.20;19.70;99697.00;;;;5046904;28;20545;-70
2021/04/22 10:38:03;;;;;;;6.43;5.43;;;12.20;90.20;19.60;99685.00;;;;5048231;28;20440;-70
2021/04/22 10:40:33;;;;;;;7.80;5.63;;;12.20;90.20;19.80;99694.00;;;;5015018;28;20468;-70
2021/04/22 10:43:00;;;;;;;7.10;5.70;;;12.20;90.20;19.60;99695.00;;;;5047689;28;20423;-69
2021/04/22 10:45:27;;;;;;;6.20;4.63;;;12.20;90.20;19.60;99695.00;;;;5031534;28;20886;-69
2021/04/22 10:47:53;;;;;;;5.87;4.97;;;12.20;90.20;19.60;99684.00;;;;5048087;28;20797;-70
2021/04/22 10:50:34;;;;;;;6.70;5.10;;;12.20;90.20;19.60;99694.00;;;;5047556;28;20439;-70
2021/04/22 10:53:00;;;;;;;6.50;5.20;;;12.20;90.10;19.70;99668.00;;;;5048169;28;20212;-70
2021/04/22 10:55:29;;;;;;;5.97;4.80;;;12.10;89.90;19.70;99688.00;;;;5030477;28;20468;-70